createdAt,value
2022-10-24T00:03:14.752Z,91.68
2022-10-24T00:08:16.815Z,102.10
2022-10-24T00:13:19.407Z,57.45
2022-10-24T00:18:21.384Z,96.40
2022-10-24T00:23:23.366Z,74.97
2022-10-24T00:28:25.508Z,67.63
2022-10-24T00:33:29.356Z,33.83
2022-10-24T00:38:31.370Z,26.50
2022-10-24T00:43:33.635Z,36.40
2022-10-24T00:48:42.866Z,40.42
2022-10-24T00:53:49.599Z,43.97
2022-10-24T00:58:53.651Z,62.35
2022-10-24T01:03:55.666Z,41.03
2022-10-24T01:09:09.817Z,39.08
2022-10-24T01:14:27.835Z,48.95
2022-10-24T01:20:07.024Z,41.40
2022-10-24T01:25:45.057Z,36.28
2022-10-24T01:31:08.261Z,36.13
2022-10-24T01:36:21.270Z,39.10
2022-10-24T01:41:26.994Z,56.53
2022-10-24T01:46:34.141Z,39.55
2022-10-24T01:51:38.641Z,91.97
2022-10-24T01:56:40.648Z,73.35
2022-10-24T02:01:42.788Z,107.68
2022-10-24T02:06:48.824Z,89.72
2022-10-24T02:11:54.801Z,52.60
2022-10-24T02:16:56.874Z,56.17
2022-10-24T02:22:02.102Z,59.42
2022-10-24T02:27:13.076Z,80.65
2022-10-24T02:32:21.436Z,68.65
2022-10-24T02:37:25.564Z,53.22
2022-10-24T02:47:32.636Z,86.60
2022-10-24T02:52:36.677Z,68.15
2022-10-24T02:57:39.617Z,56.15
2022-10-24T03:02:41.648Z,79.07
2022-10-24T03:07:43.672Z,44.33
2022-10-24T03:12:45.917Z,52.08
2022-10-24T03:17:49.229Z,47.33
2022-10-24T03:22:51.984Z,39.72
2022-10-24T03:27:54.027Z,38.63
2022-10-24T03:33:02.769Z,58.13
2022-10-24T03:38:04.803Z,42.95
2022-10-24T03:43:06.716Z,35.53
2022-10-24T03:48:09.228Z,34.78
2022-10-24T03:53:11.416Z,39.28
2022-10-24T03:58:13.395Z,49.45
2022-10-24T04:03:15.396Z,42.15
2022-10-24T04:08:17.515Z,41.25
2022-10-24T04:13:19.484Z,41.35
2022-10-24T04:18:21.482Z,49.25
2022-10-24T04:23:23.457Z,69.63
2022-10-24T04:28:25.431Z,59.42
2022-10-24T04:33:27.579Z,49.97
2022-10-24T04:38:33.275Z,50.67
2022-10-24T04:43:35.737Z,45.85
2022-10-24T04:48:37.710Z,50.15
2022-10-24T04:53:39.804Z,46.95
2022-10-24T04:58:41.817Z,41.85
2022-10-24T05:03:43.810Z,40.15
2022-10-24T05:08:45.779Z,45.15
2022-10-24T05:13:47.764Z,45.72
2022-10-24T05:18:49.883Z,45.47
2022-10-24T05:23:51.938Z,43.35
2022-10-24T05:28:53.932Z,43.03
2022-10-24T05:33:56.169Z,43.30
2022-10-24T05:38:58.128Z,43.67
2022-10-24T05:44:00.452Z,42.42
2022-10-24T05:49:02.429Z,45.97
2022-10-24T05:54:04.483Z,40.92
2022-10-24T05:59:06.780Z,40.13
2022-10-24T06:04:12.830Z,45.63
2022-10-24T06:09:16.009Z,49.13
2022-10-24T06:14:18.060Z,43.25
2022-10-24T06:19:21.819Z,46.65
2022-10-24T06:24:23.902Z,37.97
2022-10-24T06:29:25.925Z,38.33
2022-10-24T06:34:28.853Z,36.25
2022-10-24T06:39:30.876Z,34.92
2022-10-24T06:44:32.978Z,34.40
2022-10-24T06:49:35.011Z,35.63
2022-10-24T06:54:39.037Z,84.07
2022-10-24T06:59:41.177Z,75.28
2022-10-24T07:04:43.222Z,52.92
2022-10-24T07:09:45.856Z,45.95
2022-10-24T07:14:48.396Z,46.20
2022-10-24T07:19:54.613Z,37.53
2022-10-24T07:24:56.780Z,33.72
2022-10-24T07:30:03.051Z,33.08
2022-10-24T07:35:08.167Z,28.67
2022-10-24T07:40:10.788Z,32.55
2022-10-24T07:45:12.817Z,32.87
2022-10-24T07:50:17.385Z,29.75
2022-10-24T07:55:19.334Z,29.08
2022-10-24T08:00:21.479Z,31.02
2022-10-24T08:05:23.609Z,33.97
2022-10-24T08:10:25.712Z,29.38
2022-10-24T08:15:27.937Z,27.25
2022-10-24T08:20:30.157Z,27.73
2022-10-24T08:25:32.334Z,28.38
2022-10-24T08:30:34.344Z,22.35
2022-10-24T08:35:36.544Z,24.27
2022-10-24T08:40:39.760Z,24.33
2022-10-24T08:45:55.897Z,25.23
2022-10-24T08:51:17.873Z,27.77
2022-10-24T08:56:21.121Z,23.65
2022-10-24T09:01:52.690Z,26.27
2022-10-24T09:06:55.743Z,31.30
2022-10-24T09:12:11.229Z,32.33
2022-10-24T09:22:30.296Z,26.43
2022-10-24T09:27:38.072Z,24.10
2022-10-24T09:32:42.361Z,22.95
2022-10-24T09:37:49.420Z,25.40
2022-10-24T09:43:00.642Z,26.23
2022-10-24T09:48:07.689Z,23.42
2022-10-24T09:53:29.029Z,26.10
2022-10-24T09:58:35.614Z,21.10
2022-10-24T10:03:37.508Z,19.00
2022-10-24T10:08:39.854Z,22.13
2022-10-24T10:13:51.959Z,22.27
2022-10-24T10:19:18.109Z,24.35
2022-10-24T10:24:42.256Z,19.25
2022-10-24T10:29:44.277Z,23.05
2022-10-24T10:34:53.987Z,22.77
2022-10-24T10:40:15.329Z,24.48
2022-10-24T10:45:41.474Z,23.20
2022-10-24T10:51:10.600Z,22.17
2022-10-24T10:56:39.353Z,20.30
2022-10-24T11:01:51.442Z,21.17
2022-10-24T11:06:58.581Z,16.75
2022-10-24T11:12:24.341Z,21.33
2022-10-24T11:17:42.712Z,22.63
2022-10-24T11:22:59.377Z,18.92
2022-10-24T11:28:07.122Z,16.27
2022-10-24T11:33:20.242Z,19.13
2022-10-24T11:38:24.659Z,14.80
2022-10-24T11:43:40.250Z,15.30
2022-10-24T11:48:51.122Z,14.65
2022-10-24T11:54:00.105Z,16.55
2022-10-24T11:59:08.445Z,15.75
2022-10-24T12:04:29.028Z,15.80
2022-10-24T12:09:34.560Z,16.70
2022-10-24T12:15:17.637Z,14.20
2022-10-24T12:20:22.710Z,11.68
2022-10-24T12:25:30.833Z,11.40
2022-10-24T12:30:35.717Z,13.85
2022-10-24T12:35:40.755Z,14.32
2022-10-24T12:40:46.037Z,14.02
2022-10-24T12:45:48.168Z,12.23
2022-10-24T12:51:19.401Z,13.25
2022-10-24T12:56:21.716Z,18.02
2022-10-24T13:01:38.011Z,12.40
2022-10-24T13:07:18.254Z,11.77
2022-10-24T13:12:33.551Z,11.13
2022-10-24T13:17:38.664Z,17.02
2022-10-24T13:22:41.641Z,18.33
2022-10-24T13:27:43.655Z,13.48
2022-10-24T13:32:45.834Z,15.43
2022-10-24T13:37:51.159Z,13.60
2022-10-24T13:43:06.781Z,15.13
2022-10-24T13:48:21.491Z,15.35
2022-10-24T13:53:35.381Z,11.75
2022-10-24T13:58:44.315Z,17.65
2022-10-24T14:03:48.261Z,13.82
2022-10-24T14:09:02.706Z,18.85
2022-10-24T14:14:12.034Z,17.80
2022-10-24T14:19:17.733Z,16.63
2022-10-24T14:24:24.690Z,19.15
2022-10-24T14:29:32.579Z,15.18
2022-10-24T14:34:39.660Z,28.30
2022-10-24T14:39:42.189Z,32.05
2022-10-24T14:44:46.385Z,22.53
2022-10-24T14:49:48.917Z,24.13
2022-10-24T14:55:27.437Z,17.20
2022-10-24T15:00:37.917Z,29.77
2022-10-24T15:05:41.284Z,25.98
2022-10-24T15:15:50.389Z,28.40
2022-10-24T15:20:59.325Z,36.50
2022-10-24T15:26:10.801Z,32.47
2022-10-24T15:31:15.438Z,35.05
2022-10-24T15:36:24.152Z,43.83
2022-10-24T15:41:27.474Z,40.28
2022-10-24T15:46:31.080Z,37.83
2022-10-24T15:51:33.487Z,39.47
2022-10-24T15:56:36.237Z,47.42
2022-10-24T16:01:44.988Z,50.70
2022-10-24T16:06:47.834Z,61.00
2022-10-24T16:11:49.903Z,54.83
2022-10-24T16:16:54.730Z,38.13
2022-10-24T16:22:00.990Z,41.30
2022-10-24T16:27:03.296Z,45.85
2022-10-24T16:32:05.485Z,66.78
2022-10-24T16:37:07.516Z,144.85
2022-10-24T16:42:09.781Z,254.10
2022-10-24T16:47:11.714Z,385.38
2022-10-24T16:52:13.786Z,582.30
2022-10-24T16:57:16.045Z,246.05
2022-10-24T17:02:18.653Z,278.90
2022-10-24T17:07:20.716Z,114.60
2022-10-24T17:12:22.902Z,68.75
2022-10-24T17:17:24.882Z,54.83
2022-10-24T17:22:27.922Z,67.45
2022-10-24T17:27:36.305Z,121.53
2022-10-24T17:32:38.325Z,323.65
2022-10-24T17:38:00.844Z,128.98
2022-10-24T17:43:06.314Z,96.70
2022-10-24T17:48:10.181Z,139.10
2022-10-24T17:53:18.105Z,156.88
2022-10-24T17:58:20.257Z,185.10
2022-10-24T18:03:22.404Z,76.10
2022-10-24T18:08:24.551Z,95.63
2022-10-24T18:13:26.856Z,93.30
2022-10-24T18:18:29.159Z,136.60
2022-10-24T18:23:37.289Z,221.02
2022-10-24T18:28:47.895Z,134.50
2022-10-24T18:33:51.151Z,131.88
2022-10-24T18:38:59.084Z,123.57
2022-10-24T18:44:14.026Z,131.00
2022-10-24T18:49:16.968Z,112.97
2022-10-24T18:54:21.158Z,174.83
2022-10-24T18:59:23.589Z,183.23
2022-10-24T19:04:26.904Z,113.20
2022-10-24T19:09:29.864Z,97.00
2022-10-24T19:14:32.094Z,90.30
2022-10-24T19:19:35.127Z,64.75
2022-10-24T19:24:38.785Z,68.85
2022-10-24T19:34:43.545Z,70.15
2022-10-24T19:39:45.877Z,80.38
2022-10-24T19:44:50.313Z,107.97
2022-10-24T19:49:53.001Z,111.20
2022-10-24T19:54:55.118Z,103.38
2022-10-24T19:59:57.275Z,109.03
2022-10-24T20:04:59.240Z,100.95
2022-10-24T20:10:01.195Z,91.25
2022-10-24T20:15:03.286Z,89.63
2022-10-24T20:20:06.089Z,97.15
2022-10-24T20:25:08.167Z,85.87
2022-10-24T20:30:10.813Z,70.18
2022-10-24T20:35:13.017Z,75.53
2022-10-24T20:40:15.165Z,42.97
2022-10-24T20:45:39.939Z,52.10
2022-10-24T20:50:41.929Z,66.45
2022-10-24T20:55:44.797Z,65.35
2022-10-24T21:00:47.211Z,56.38
2022-10-24T21:05:49.173Z,44.72
2022-10-24T21:10:51.181Z,52.20
2022-10-24T21:15:56.782Z,54.05
2022-10-24T21:20:58.753Z,52.45
2022-10-24T21:26:02.504Z,56.90
2022-10-24T21:31:09.382Z,62.33
2022-10-24T21:36:21.372Z,56.50
2022-10-24T21:41:24.437Z,54.22
2022-10-24T21:46:29.184Z,55.83
2022-10-24T21:51:36.514Z,45.55
2022-10-24T21:56:38.688Z,42.15
2022-10-24T22:01:41.457Z,39.05
2022-10-24T22:06:44.257Z,43.70
2022-10-24T22:11:46.605Z,40.97
2022-10-24T22:16:48.665Z,46.63
2022-10-24T22:21:51.376Z,39.00
2022-10-24T22:26:53.638Z,38.30
2022-10-24T22:31:55.953Z,45.40
2022-10-24T22:37:12.882Z,37.25
2022-10-24T22:42:19.331Z,43.05
2022-10-24T22:48:07.149Z,38.25
2022-10-24T22:53:12.545Z,35.65
2022-10-24T22:58:14.960Z,46.10
2022-10-24T23:03:35.884Z,35.35
2022-10-24T23:08:40.821Z,43.25
2022-10-24T23:13:43.253Z,37.95
2022-10-24T23:18:45.616Z,42.95
2022-10-24T23:23:47.948Z,56.83
2022-10-24T23:28:56.300Z,48.92
2022-10-24T23:33:58.612Z,39.83
2022-10-24T23:39:00.831Z,48.15
2022-10-24T23:44:03.044Z,32.55
2022-10-24T23:49:04.924Z,38.30
2022-10-24T23:54:10.651Z,39.95
2022-10-24T23:59:12.777Z,57.50
